sensor_id;sensor_type;location;lat;lon;timestamp;pressure;altitude;pressure_sealevel;temperature;humidity
39435;BME280;66825;51.880;-0.518;2024-02-16T00:01:59;99655.78;;;17.79;49.45
39435;BME280;66825;51.880;-0.518;2024-02-16T00:04:24;99286.91;;;15.57;49.71
39435;BME280;66825;51.880;-0.518;2024-02-16T00:06:50;99580.00;;;17.46;49.30
39435;BME280;66825;51.880;-0.518;2024-02-16T00:09:16;99644.09;;;17.78;49.56
39435;BME280;66825;51.880;-0.518;2024-02-16T00:11:41;99645.72;;;17.80;49.50
39435;BME280;66825;51.880;-0.518;2024-02-16T00:14:06;99628.88;;;17.69;49.65
39435;BME280;66825;51.880;-0.518;2024-02-16T00:16:32;99560.78;;;17.25;49.36
39435;BME280;66825;51.880;-0.518;2024-02-16T00:18:57;99461.44;;;16.70;49.42
39435;BME280;66825;51.880;-0.518;2024-02-16T00:21:23;99630.00;;;17.76;49.32
39435;BME280;66825;51.880;-0.518;2024-02-16T00:23:49;99636.56;;;17.75;49.29
39435;BME280;66825;51.880;-0.518;2024-02-16T00:26:15;99636.88;;;17.74;49.41
39435;BME280;66825;51.880;-0.518;2024-02-16T00:28:40;99566.06;;;17.21;49.46
39435;BME280;66825;51.880;-0.518;2024-02-16T00:31:07;99470.88;;;16.63;49.48
39435;BME280;66825;51.880;-0.518;2024-02-16T00:33:32;99596.34;;;17.46;49.50
39435;BME280;66825;51.880;-0.518;2024-02-16T00:35:58;99616.19;;;17.55;49.66
39435;BME280;66825;51.880;-0.518;2024-02-16T00:38:24;99634.47;;;17.63;49.37
39435;BME280;66825;51.880;-0.518;2024-02-16T00:40:49;99645.34;;;17.63;49.94
39435;BME280;66825;51.880;-0.518;2024-02-16T00:43:15;99570.06;;;17.15;49.66
39435;BME280;66825;51.880;-0.518;2024-02-16T00:45:43;99679.81;;;17.68;49.47
39435;BME280;66825;51.880;-0.518;2024-02-16T00:48:10;99661.25;;;17.61;49.52
39435;BME280;66825;51.880;-0.518;2024-02-16T00:50:36;99668.44;;;17.66;49.63
39435;BME280;66825;51.880;-0.518;2024-02-16T00:53:02;99666.53;;;17.67;49.52
39435;BME280;66825;51.880;-0.518;2024-02-16T00:55:27;99666.84;;;17.65;49.89
39435;BME280;66825;51.880;-0.518;2024-02-16T00:57:53;99464.25;;;16.38;49.43
39435;BME280;66825;51.880;-0.518;2024-02-16T01:00:18;99642.31;;;17.39;49.45
39435;BME280;66825;51.880;-0.518;2024-02-16T01:02:45;99654.03;;;17.57;49.45
39435;BME280;66825;51.880;-0.518;2024-02-16T01:05:10;99698.22;;;17.62;49.71
39435;BME280;66825;51.880;-0.518;2024-02-16T01:07:36;99678.38;;;17.62;49.24
39435;BME280;66825;51.880;-0.518;2024-02-16T01:10:02;99644.72;;;17.40;49.88
39435;BME280;66825;51.880;-0.518;2024-02-16T01:12:30;99669.88;;;17.55;49.73
39435;BME280;66825;51.880;-0.518;2024-02-16T01:14:58;99643.75;;;17.36;49.72
39435;BME280;66825;51.880;-0.518;2024-02-16T01:17:25;99530.53;;;16.60;49.50
39435;BME280;66825;51.880;-0.518;2024-02-16T01:19:50;99519.97;;;16.58;49.52
39435;BME280;66825;51.880;-0.518;2024-02-16T01:22:16;99506.34;;;16.49;49.43
39435;BME280;66825;51.880;-0.518;2024-02-16T01:24:41;99563.56;;;16.85;49.50
39435;BME280;66825;51.880;-0.518;2024-02-16T01:27:07;99473.78;;;16.18;49.55
39435;BME280;66825;51.880;-0.518;2024-02-16T01:29:32;99684.78;;;17.57;49.75
39435;BME280;66825;51.880;-0.518;2024-02-16T01:31:58;99671.94;;;17.40;49.75
39435;BME280;66825;51.880;-0.518;2024-02-16T01:34:23;99704.94;;;17.56;49.68
39435;BME280;66825;51.880;-0.518;2024-02-16T01:36:49;99511.56;;;16.28;49.48
39435;BME280;66825;51.880;-0.518;2024-02-16T01:39:14;99467.69;;;16.12;49.37
39435;BME280;66825;51.880;-0.518;2024-02-16T01:41:40;99658.78;;;17.34;49.39
39435;BME280;66825;51.880;-0.518;2024-02-16T01:44:05;99685.72;;;17.53;49.60
39435;BME280;66825;51.880;-0.518;2024-02-16T01:46:31;99509.13;;;16.27;49.75
39435;BME280;66825;51.880;-0.518;2024-02-16T01:48:58;99675.44;;;17.32;49.43
39435;BME280;66825;51.880;-0.518;2024-02-16T01:51:24;99703.19;;;17.52;49.66
39435;BME280;66825;51.880;-0.518;2024-02-16T01:53:51;99700.78;;;17.50;49.81
39435;BME280;66825;51.880;-0.518;2024-02-16T01:56:18;99507.38;;;16.22;49.64
39435;BME280;66825;51.880;-0.518;2024-02-16T01:58:46;99695.81;;;17.43;49.65
39435;BME280;66825;51.880;-0.518;2024-02-16T02:01:11;99700.28;;;17.48;49.64
39435;BME280;66825;51.880;-0.518;2024-02-16T02:03:37;99536.84;;;16.38;49.61
39435;BME280;66825;51.880;-0.518;2024-02-16T02:06:03;99667.41;;;17.18;49.52
39435;BME280;66825;51.880;-0.518;2024-02-16T02:08:29;99729.47;;;17.48;49.61
39435;BME280;66825;51.880;-0.518;2024-02-16T02:10:55;99503.19;;;16.16;49.61
39435;BME280;66825;51.880;-0.518;2024-02-16T02:13:20;99677.31;;;17.23;50.02
39435;BME280;66825;51.880;-0.518;2024-02-16T02:15:47;99732.50;;;17.46;49.75
39435;BME280;66825;51.880;-0.518;2024-02-16T02:18:13;99673.97;;;17.17;50.01
39435;BME280;66825;51.880;-0.518;2024-02-16T02:20:39;99696.72;;;17.30;49.73
39435;BME280;66825;51.880;-0.518;2024-02-16T02:23:05;99728.63;;;17.38;49.63
39435;BME280;66825;51.880;-0.518;2024-02-16T02:25:30;99645.41;;;16.97;49.83
39435;BME280;66825;51.880;-0.518;2024-02-16T02:27:57;99722.22;;;17.43;50.01
39435;BME280;66825;51.880;-0.518;2024-02-16T02:30:22;99701.72;;;17.37;49.98
39435;BME280;66825;51.880;-0.518;2024-02-16T02:32:49;99634.34;;;16.93;49.85
39435;BME280;66825;51.880;-0.518;2024-02-16T02:35:16;99710.84;;;17.41;49.68
39435;BME280;66825;51.880;-0.518;2024-02-16T02:37:41;99560.38;;;16.42;49.81
39435;BME280;66825;51.880;-0.518;2024-02-16T02:40:08;99724.47;;;17.41;49.46
39435;BME280;66825;51.880;-0.518;2024-02-16T02:42:34;99719.34;;;17.39;50.18
39435;BME280;66825;51.880;-0.518;2024-02-16T02:45:00;99734.06;;;17.38;50.05
39435;BME280;66825;51.880;-0.518;2024-02-16T02:47:26;99741.13;;;17.39;49.75
39435;BME280;66825;51.880;-0.518;2024-02-16T02:49:52;99618.22;;;16.65;49.70
39435;BME280;66825;51.880;-0.518;2024-02-16T02:52:17;99731.34;;;17.38;49.76
39435;BME280;66825;51.880;-0.518;2024-02-16T02:54:42;99718.34;;;17.26;49.70
39435;BME280;66825;51.880;-0.518;2024-02-16T02:57:08;99680.19;;;17.09;50.06
39435;BME280;66825;51.880;-0.518;2024-02-16T02:59:33;99722.72;;;17.36;49.74
39435;BME280;66825;51.880;-0.518;2024-02-16T03:01:59;99720.00;;;17.36;49.94
39435;BME280;66825;51.880;-0.518;2024-02-16T03:04:25;99737.44;;;17.35;50.00
39435;BME280;66825;51.880;-0.518;2024-02-16T03:06:51;99592.47;;;16.31;49.67
39435;BME280;66825;51.880;-0.518;2024-02-16T03:09:17;99536.41;;;16.04;49.78
39435;BME280;66825;51.880;-0.518;2024-02-16T03:11:43;99668.69;;;16.89;49.85
39435;BME280;66825;51.880;-0.518;2024-02-16T03:14:08;99627.81;;;16.63;49.66
39435;BME280;66825;51.880;-0.518;2024-02-16T03:16:33;99716.41;;;17.18;49.84
39435;BME280;66825;51.880;-0.518;2024-02-16T03:18:59;99721.19;;;17.12;49.88
39435;BME280;66825;51.880;-0.518;2024-02-16T03:21:25;99733.69;;;17.13;49.97
39435;BME280;66825;51.880;-0.518;2024-02-16T03:23:53;99767.22;;;17.32;50.02
39435;BME280;66825;51.880;-0.518;2024-02-16T03:26:20;99785.44;;;17.31;49.86
39435;BME280;66825;51.880;-0.518;2024-02-16T03:28:46;99791.22;;;17.29;50.05
39435;BME280;66825;51.880;-0.518;2024-02-16T03:31:18;99750.78;;;17.05;49.65
39435;BME280;66825;51.880;-0.518;2024-02-16T03:33:44;99792.34;;;17.28;49.86
39435;BME280;66825;51.880;-0.518;2024-02-16T03:36:09;99781.44;;;17.28;49.88
39435;BME280;66825;51.880;-0.518;2024-02-16T03:38:36;99772.50;;;17.28;49.92
39435;BME280;66825;51.880;-0.518;2024-02-16T03:41:02;99423.88;;;14.97;49.93
39435;BME280;66825;51.880;-0.518;2024-02-16T03:43:27;99802.72;;;17.26;49.63
39435;BME280;66825;51.880;-0.518;2024-02-16T03:45:52;99814.59;;;17.22;50.10
39435;BME280;66825;51.880;-0.518;2024-02-16T03:48:18;99820.97;;;17.17;50.03
39435;BME280;66825;51.880;-0.518;2024-02-16T03:50:43;99852.06;;;17.25;50.03
39435;BME280;66825;51.880;-0.518;2024-02-16T03:53:11;99872.22;;;17.24;50.18
39435;BME280;66825;51.880;-0.518;2024-02-16T03:55:36;99642.72;;;15.88;50.05
39435;BME280;66825;51.880;-0.518;2024-02-16T03:58:03;99862.16;;;17.24;49.86
39435;BME280;66825;51.880;-0.518;2024-02-16T04:00:29;99820.16;;;16.94;50.19
39435;BME280;66825;51.880;-0.518;2024-02-16T04:02:54;99849.53;;;17.06;50.22
39435;BME280;66825;51.880;-0.518;2024-02-16T04:05:20;99648.56;;;15.68;49.75
39435;BME280;66825;51.880;-0.518;2024-02-16T04:07:46;99882.63;;;17.22;49.79
39435;BME280;66825;51.880;-0.518;2024-02-16T04:10:11;99905.19;;;17.22;49.87
39435;BME280;66825;51.880;-0.518;2024-02-16T04:12:37;99888.38;;;17.20;49.81
39435;BME280;66825;51.880;-0.518;2024-02-16T04:15:03;99869.59;;;17.10;49.95
39435;BME280;66825;51.880;-0.518;2024-02-16T04:17:29;99883.75;;;17.21;49.72
39435;BME280;66825;51.880;-0.518;2024-02-16T04:19:55;99878.31;;;17.21;49.84
39435;BME280;66825;51.880;-0.518;2024-02-16T04:22:21;99858.44;;;17.20;50.10
39435;BME280;66825;51.880;-0.518;2024-02-16T04:24:47;99665.56;;;16.10;50.17
39435;BME280;66825;51.880;-0.518;2024-02-16T04:27:12;99819.53;;;17.20;50.03
39435;BME280;66825;51.880;-0.518;2024-02-16T04:29:37;99694.34;;;16.11;49.80
39435;BME280;66825;51.880;-0.518;2024-02-16T04:32:03;99880.53;;;17.19;49.85
39435;BME280;66825;51.880;-0.518;2024-02-16T04:34:29;99531.97;;;14.89;50.17
39435;BME280;66825;51.880;-0.518;2024-02-16T04:36:55;99630.16;;;15.42;49.99
39435;BME280;66825;51.880;-0.518;2024-02-16T04:39:20;99845.38;;;16.86;50.15
39435;BME280;66825;51.880;-0.518;2024-02-16T04:41:46;99891.38;;;17.10;49.75
39435;BME280;66825;51.880;-0.518;2024-02-16T04:44:11;99915.41;;;17.17;49.97
39435;BME280;66825;51.880;-0.518;2024-02-16T04:46:37;99926.63;;;17.15;49.71
39435;BME280;66825;51.880;-0.518;2024-02-16T04:49:03;99910.28;;;17.15;49.83
39435;BME280;66825;51.880;-0.518;2024-02-16T04:51:28;99902.13;;;17.15;50.24
39435;BME280;66825;51.880;-0.518;2024-02-16T04:53:54;99897.78;;;17.14;49.84
39435;BME280;66825;51.880;-0.518;2024-02-16T04:56:19;99891.53;;;17.13;50.04
39435;BME280;66825;51.880;-0.518;2024-02-16T04:58:45;99903.22;;;17.14;49.84
39435;BME280;66825;51.880;-0.518;2024-02-16T05:01:12;99944.38;;;17.12;49.85
39435;BME280;66825;51.880;-0.518;2024-02-16T05:03:38;99941.66;;;17.12;50.18
39435;BME280;66825;51.880;-0.518;2024-02-16T05:06:06;99952.53;;;17.12;50.20
39435;BME280;66825;51.880;-0.518;2024-02-16T05:08:31;99920.75;;;16.85;50.01
39435;BME280;66825;51.880;-0.518;2024-02-16T05:10:57;99757.19;;;15.82;50.18
39435;BME280;66825;51.880;-0.518;2024-02-16T05:13:22;99927.09;;;16.94;50.26
39435;BME280;66825;51.880;-0.518;2024-02-16T05:15:48;99957.47;;;17.10;50.07
39435;BME280;66825;51.880;-0.518;2024-02-16T05:18:14;99850.88;;;16.35;49.69
39435;BME280;66825;51.880;-0.518;2024-02-16T05:20:40;99971.41;;;17.09;49.88
39435;BME280;66825;51.880;-0.518;2024-02-16T05:23:05;99898.63;;;16.78;49.73
39435;BME280;66825;51.880;-0.518;2024-02-16T05:25:31;99832.69;;;16.35;50.20
39435;BME280;66825;51.880;-0.518;2024-02-16T05:27:56;99962.41;;;17.08;49.90
39435;BME280;66825;51.880;-0.518;2024-02-16T05:30:22;99958.91;;;17.08;49.95
39435;BME280;66825;51.880;-0.518;2024-02-16T05:32:47;99762.44;;;15.78;50.04
39435;BME280;66825;51.880;-0.518;2024-02-16T05:35:14;99975.22;;;17.08;49.83
39435;BME280;66825;51.880;-0.518;2024-02-16T05:37:42;99972.81;;;17.06;50.03
39435;BME280;66825;51.880;-0.518;2024-02-16T05:40:18;99975.53;;;17.06;49.84
39435;BME280;66825;51.880;-0.518;2024-02-16T05:42:47;99966.44;;;16.74;49.88
39435;BME280;66825;51.880;-0.518;2024-02-16T05:45:14;99994.59;;;17.06;50.28
39435;BME280;66825;51.880;-0.518;2024-02-16T05:47:40;100002.75;;;17.06;49.79
39435;BME280;66825;51.880;-0.518;2024-02-16T05:50:06;99809.38;;;15.79;49.72
39435;BME280;66825;51.880;-0.518;2024-02-16T05:52:32;100004.47;;;17.02;50.32
39435;BME280;66825;51.880;-0.518;2024-02-16T05:54:57;99811.44;;;15.73;50.39
39435;BME280;66825;51.880;-0.518;2024-02-16T05:57:23;99945.50;;;16.61;50.05
39435;BME280;66825;51.880;-0.518;2024-02-16T05:59:49;100014.25;;;17.03;49.81
39435;BME280;66825;51.880;-0.518;2024-02-16T06:02:15;99808.31;;;15.66;50.18
39435;BME280;66825;51.880;-0.518;2024-02-16T06:04:41;100011.34;;;16.86;50.03
39435;BME280;66825;51.880;-0.518;2024-02-16T06:07:07;100023.44;;;16.93;49.80
39435;BME280;66825;51.880;-0.518;2024-02-16T06:09:33;100034.41;;;17.02;50.16
39435;BME280;66825;51.880;-0.518;2024-02-16T06:12:03;99998.09;;;16.70;49.83
39435;BME280;66825;51.880;-0.518;2024-02-16T06:14:33;99841.78;;;15.75;49.80
39435;BME280;66825;51.880;-0.518;2024-02-16T06:16:59;99875.72;;;15.92;49.83
39435;BME280;66825;51.880;-0.518;2024-02-16T06:19:25;100051.38;;;16.99;50.15
39435;BME280;66825;51.880;-0.518;2024-02-16T06:21:52;99998.50;;;16.63;50.11
39435;BME280;66825;51.880;-0.518;2024-02-16T06:24:18;100063.03;;;16.99;50.02
39435;BME280;66825;51.880;-0.518;2024-02-16T06:26:44;100046.41;;;16.73;49.91
39435;BME280;66825;51.880;-0.518;2024-02-16T06:29:09;100066.09;;;16.98;49.87
39435;BME280;66825;51.880;-0.518;2024-02-16T06:31:35;100096.09;;;16.93;50.21
39435;BME280;66825;51.880;-0.518;2024-02-16T06:34:00;100084.31;;;16.97;49.92
39435;BME280;66825;51.880;-0.518;2024-02-16T06:36:26;100024.97;;;16.58;49.98
39435;BME280;66825;51.880;-0.518;2024-02-16T06:38:52;99884.56;;;15.69;49.74
39435;BME280;66825;51.880;-0.518;2024-02-16T06:41:17;100090.84;;;16.96;50.14
39435;BME280;66825;51.880;-0.518;2024-02-16T06:43:42;100094.88;;;16.85;49.85
39435;BME280;66825;51.880;-0.518;2024-02-16T06:46:08;100048.25;;;16.64;50.22
39435;BME280;66825;51.880;-0.518;2024-02-16T06:48:33;99859.38;;;15.36;49.66
39435;BME280;66825;51.880;-0.518;2024-02-16T06:50:59;100082.69;;;16.82;49.46
39435;BME280;66825;51.880;-0.518;2024-02-16T06:53:24;100077.38;;;16.77;49.53
39435;BME280;66825;51.880;-0.518;2024-02-16T06:55:50;100129.16;;;17.00;49.40
39435;BME280;66825;51.880;-0.518;2024-02-16T06:58:16;100113.34;;;17.02;49.58
39435;BME280;66825;51.880;-0.518;2024-02-16T07:00:42;100126.03;;;17.07;49.71
39435;BME280;66825;51.880;-0.518;2024-02-16T07:03:08;100146.06;;;17.11;49.88
39435;BME280;66825;51.880;-0.518;2024-02-16T07:05:37;100136.22;;;17.15;49.71
39435;BME280;66825;51.880;-0.518;2024-02-16T07:08:02;100096.19;;;16.88;49.75
39435;BME280;66825;51.880;-0.518;2024-02-16T07:10:29;100146.28;;;17.14;49.95
39435;BME280;66825;51.880;-0.518;2024-02-16T07:12:55;100146.59;;;17.27;49.47
39435;BME280;66825;51.880;-0.518;2024-02-16T07:15:20;100153.00;;;17.31;49.68
39435;BME280;66825;51.880;-0.518;2024-02-16T07:17:45;100138.84;;;17.06;49.77
39435;BME280;66825;51.880;-0.518;2024-02-16T07:20:11;100179.84;;;17.38;49.50
39435;BME280;66825;51.880;-0.518;2024-02-16T07:22:40;100122.81;;;17.05;49.59
39435;BME280;66825;51.880;-0.518;2024-02-16T07:25:07;100139.72;;;17.15;49.50
39435;BME280;66825;51.880;-0.518;2024-02-16T07:27:34;100183.16;;;17.35;49.77
39435;BME280;66825;51.880;-0.518;2024-02-16T07:29:59;100212.47;;;17.52;49.62
39435;BME280;66825;51.880;-0.518;2024-02-16T07:32:24;100208.38;;;17.54;49.74
39435;BME280;66825;51.880;-0.518;2024-02-16T07:34:50;100165.63;;;17.27;49.43
39435;BME280;66825;51.880;-0.518;2024-02-16T07:37:16;100224.28;;;17.61;49.68
39435;BME280;66825;51.880;-0.518;2024-02-16T07:39:42;100137.72;;;17.07;49.48
39435;BME280;66825;51.880;-0.518;2024-02-16T07:42:07;100231.22;;;17.67;49.48
39435;BME280;66825;51.880;-0.518;2024-02-16T07:44:37;100232.25;;;17.71;49.17
39435;BME280;66825;51.880;-0.518;2024-02-16T07:47:03;100208.66;;;17.53;49.21
39435;BME280;66825;51.880;-0.518;2024-02-16T07:49:28;100075.44;;;16.64;49.18
39435;BME280;66825;51.880;-0.518;2024-02-16T07:51:54;100258.78;;;17.80;49.36
39435;BME280;66825;51.880;-0.518;2024-02-16T07:54:20;100240.69;;;17.70;49.09
39435;BME280;66825;51.880;-0.518;2024-02-16T07:56:46;100240.91;;;17.73;49.21
39435;BME280;66825;51.880;-0.518;2024-02-16T07:59:11;100269.75;;;17.88;49.16
39435;BME280;66825;51.880;-0.518;2024-02-16T08:01:37;100260.88;;;17.83;49.29
39435;BME280;66825;51.880;-0.518;2024-02-16T08:04:02;100270.53;;;17.89;49.22
39435;BME280;66825;51.880;-0.518;2024-02-16T08:06:28;100202.53;;;17.33;48.85
39435;BME280;66825;51.880;-0.518;2024-02-16T08:08:54;100272.66;;;17.92;49.12
39435;BME280;66825;51.880;-0.518;2024-02-16T08:11:19;100093.19;;;16.75;49.15
39435;BME280;66825;51.880;-0.518;2024-02-16T08:13:45;100286.59;;;18.04;48.98
39435;BME280;66825;51.880;-0.518;2024-02-16T08:16:11;100188.22;;;17.41;48.79
39435;BME280;66825;51.880;-0.518;2024-02-16T08:18:37;100205.84;;;17.58;48.97
39435;BME280;66825;51.880;-0.518;2024-02-16T08:21:02;100299.38;;;18.18;48.99
39435;BME280;66825;51.880;-0.518;2024-02-16T08:23:28;100308.56;;;18.22;49.04
39435;BME280;66825;51.880;-0.518;2024-02-16T08:25:53;100173.28;;;17.25;48.90
39435;BME280;66825;51.880;-0.518;2024-02-16T08:28:19;100313.75;;;18.32;48.91
39435;BME280;66825;51.880;-0.518;2024-02-16T08:30:44;100284.75;;;18.14;48.64
39435;BME280;66825;51.880;-0.518;2024-02-16T08:33:11;100291.50;;;18.16;48.80
39435;BME280;66825;51.880;-0.518;2024-02-16T08:35:38;100333.13;;;18.45;48.64
39435;BME280;66825;51.880;-0.518;2024-02-16T08:38:03;100332.81;;;18.46;48.87
39435;BME280;66825;51.880;-0.518;2024-02-16T08:40:29;100337.34;;;18.51;48.63
39435;BME280;66825;51.880;-0.518;2024-02-16T08:42:54;100284.16;;;18.17;48.64
39435;BME280;66825;51.880;-0.518;2024-02-16T08:45:20;100337.84;;;18.53;48.62
39435;BME280;66825;51.880;-0.518;2024-02-16T08:47:45;100364.41;;;18.61;48.38
39435;BME280;66825;51.880;-0.518;2024-02-16T08:50:11;100359.13;;;18.65;48.34
39435;BME280;66825;51.880;-0.518;2024-02-16T08:52:37;100322.41;;;18.48;48.36
39435;BME280;66825;51.880;-0.518;2024-02-16T08:55:03;100363.03;;;18.72;48.29
39435;BME280;66825;51.880;-0.518;2024-02-16T08:57:28;100270.00;;;18.15;48.17
39435;BME280;66825;51.880;-0.518;2024-02-16T08:59:54;100217.16;;;17.88;48.27
39435;BME280;66825;51.880;-0.518;2024-02-16T09:02:21;100371.16;;;18.86;48.24
39435;BME280;66825;51.880;-0.518;2024-02-16T09:04:47;100372.16;;;18.91;48.55
39435;BME280;66825;51.880;-0.518;2024-02-16T09:07:13;100375.88;;;18.95;48.61
39435;BME280;66825;51.880;-0.518;2024-02-16T09:09:38;100179.97;;;17.69;48.44
39435;BME280;66825;51.880;-0.518;2024-02-16T09:12:04;100198.81;;;17.80;48.45
39435;BME280;66825;51.880;-0.518;2024-02-16T09:14:29;100340.41;;;18.72;48.38
39435;BME280;66825;51.880;-0.518;2024-02-16T09:16:55;100372.47;;;18.89;48.39
39435;BME280;66825;51.880;-0.518;2024-02-16T09:19:20;100400.22;;;19.05;48.35
39435;BME280;66825;51.880;-0.518;2024-02-16T09:21:46;100218.16;;;17.92;48.34
39435;BME280;66825;51.880;-0.518;2024-02-16T09:24:12;100412.75;;;19.06;48.39
39435;BME280;66825;51.880;-0.518;2024-02-16T09:26:42;100413.53;;;19.07;48.24
39435;BME280;66825;51.880;-0.518;2024-02-16T09:29:08;100222.44;;;17.84;48.49
39435;BME280;66825;51.880;-0.518;2024-02-16T09:31:33;100372.69;;;18.79;48.65
39435;BME280;66825;51.880;-0.518;2024-02-16T09:33:59;100417.91;;;19.08;48.51
39435;BME280;66825;51.880;-0.518;2024-02-16T09:36:24;100079.06;;;16.87;48.53
39435;BME280;66825;51.880;-0.518;2024-02-16T09:38:50;100405.91;;;18.95;48.45
39435;BME280;66825;51.880;-0.518;2024-02-16T09:41:15;100426.41;;;19.06;48.33
39435;BME280;66825;51.880;-0.518;2024-02-16T09:43:42;100232.91;;;17.77;48.13
39435;BME280;66825;51.880;-0.518;2024-02-16T09:46:08;100428.56;;;18.95;48.06
39435;BME280;66825;51.880;-0.518;2024-02-16T09:48:34;100235.06;;;17.66;48.09
39435;BME280;66825;51.880;-0.518;2024-02-16T09:51:00;100435.47;;;18.79;47.86
39435;BME280;66825;51.880;-0.518;2024-02-16T09:53:26;100272.78;;;17.87;48.22
39435;BME280;66825;51.880;-0.518;2024-02-16T09:55:53;100393.72;;;18.55;47.92
39435;BME280;66825;51.880;-0.518;2024-02-16T09:58:19;100112.81;;;16.72;47.70
39435;BME280;66825;51.880;-0.518;2024-02-16T10:00:52;100464.97;;;18.91;48.02
39435;BME280;66825;51.880;-0.518;2024-02-16T10:03:27;100465.28;;;18.89;47.87
39435;BME280;66825;51.880;-0.518;2024-02-16T10:06:03;100467.31;;;18.83;47.96
39435;BME280;66825;51.880;-0.518;2024-02-16T10:08:29;100479.53;;;18.86;47.84
39435;BME280;66825;51.880;-0.518;2024-02-16T10:11:04;100371.00;;;18.09;47.64
39435;BME280;66825;51.880;-0.518;2024-02-16T10:13:31;100495.41;;;18.84;47.55
39435;BME280;66825;51.880;-0.518;2024-02-16T10:16:04;100502.28;;;18.81;47.98
39435;BME280;66825;51.880;-0.518;2024-02-16T10:18:31;100493.09;;;18.77;47.93
39435;BME280;66825;51.880;-0.518;2024-02-16T10:20:56;100510.78;;;18.80;47.97
39435;BME280;66825;51.880;-0.518;2024-02-16T10:23:22;100485.75;;;18.64;48.05
39435;BME280;66825;51.880;-0.518;2024-02-16T10:25:47;100494.56;;;18.61;47.68
39435;BME280;66825;51.880;-0.518;2024-02-16T10:28:13;100502.94;;;18.64;47.87
39435;BME280;66825;51.880;-0.518;2024-02-16T10:30:40;100516.78;;;18.68;47.51
39435;BME280;66825;51.880;-0.518;2024-02-16T10:33:08;100510.41;;;18.58;47.67
39435;BME280;66825;51.880;-0.518;2024-02-16T10:35:37;100538.47;;;18.73;47.67
39435;BME280;66825;51.880;-0.518;2024-02-16T10:38:04;100539.44;;;18.68;47.52
39435;BME280;66825;51.880;-0.518;2024-02-16T10:40:41;100541.84;;;18.70;47.55
39435;BME280;66825;51.880;-0.518;2024-02-16T10:43:08;100545.69;;;18.69;47.17
39435;BME280;66825;51.880;-0.518;2024-02-16T10:45:36;100549.84;;;18.66;47.26
39435;BME280;66825;51.880;-0.518;2024-02-16T10:48:03;100562.66;;;18.66;46.90
39435;BME280;66825;51.880;-0.518;2024-02-16T10:50:32;100558.63;;;18.63;47.12
39435;BME280;66825;51.880;-0.518;2024-02-16T10:53:02;100564.38;;;18.62;47.21
39435;BME280;66825;51.880;-0.518;2024-02-16T10:55:29;100464.56;;;17.91;47.47
39435;BME280;66825;51.880;-0.518;2024-02-16T10:57:56;100578.81;;;18.62;47.67
39435;BME280;66825;51.880;-0.518;2024-02-16T11:00:22;100584.28;;;18.62;47.55
39435;BME280;66825;51.880;-0.518;2024-02-16T11:02:55;100571.56;;;18.57;47.72
39435;BME280;66825;51.880;-0.518;2024-02-16T11:05:39;100581.75;;;18.66;47.98
39435;BME280;66825;51.880;-0.518;2024-02-16T11:08:16;100590.44;;;18.68;47.97
39435;BME280;66825;51.880;-0.518;2024-02-16T11:10:54;100593.69;;;18.70;47.99
39435;BME280;66825;51.880;-0.518;2024-02-16T11:13:24;100588.53;;;18.68;47.89
39435;BME280;66825;51.880;-0.518;2024-02-16T11:16:11;100582.47;;;18.71;47.78
39435;BME280;66825;51.880;-0.518;2024-02-16T11:18:39;100606.44;;;18.75;48.02
39435;BME280;66825;51.880;-0.518;2024-02-16T11:21:05;100559.44;;;18.50;47.98
39435;BME280;66825;51.880;-0.518;2024-02-16T11:23:35;100592.16;;;18.78;47.91
39435;BME280;66825;51.880;-0.518;2024-02-16T11:26:05;100589.75;;;18.76;47.94
39435;BME280;66825;51.880;-0.518;2024-02-16T11:28:37;100602.47;;;18.81;48.14
39435;BME280;66825;51.880;-0.518;2024-02-16T11:31:04;100606.50;;;18.83;48.01
39435;BME280;66825;51.880;-0.518;2024-02-16T11:33:30;100610.03;;;18.84;48.07
39435;BME280;66825;51.880;-0.518;2024-02-16T11:36:00;100603.97;;;18.87;48.23
39435;BME280;66825;51.880;-0.518;2024-02-16T11:38:26;100614.91;;;18.87;48.05
39435;BME280;66825;51.880;-0.518;2024-02-16T11:40:59;100592.47;;;18.76;48.18
39435;BME280;66825;51.880;-0.518;2024-02-16T11:43:25;100620.06;;;18.88;48.18
39435;BME280;66825;51.880;-0.518;2024-02-16T11:45:51;100623.59;;;18.89;48.17
39435;BME280;66825;51.880;-0.518;2024-02-16T11:48:26;100616.00;;;18.86;48.16
39435;BME280;66825;51.880;-0.518;2024-02-16T11:51:03;100479.44;;;17.99;48.28
39435;BME280;66825;51.880;-0.518;2024-02-16T11:53:32;100608.56;;;18.92;48.25
39435;BME280;66825;51.880;-0.518;2024-02-16T11:55:58;100609.34;;;18.92;48.26
39435;BME280;66825;51.880;-0.518;2024-02-16T11:58:24;100617.25;;;18.94;48.37
39435;BME280;66825;51.880;-0.518;2024-02-16T12:00:51;100601.25;;;18.87;48.12
39435;BME280;66825;51.880;-0.518;2024-02-16T12:03:20;100627.88;;;18.95;48.23
39435;BME280;66825;51.880;-0.518;2024-02-16T12:05:59;100617.47;;;18.97;48.12
39435;BME280;66825;51.880;-0.518;2024-02-16T12:08:32;100624.22;;;19.00;48.09
39435;BME280;66825;51.880;-0.518;2024-02-16T12:10:58;100618.47;;;19.01;48.25
39435;BME280;66825;51.880;-0.518;2024-02-16T12:13:23;100617.34;;;19.02;48.28
39435;BME280;66825;51.880;-0.518;2024-02-16T12:15:50;100619.75;;;19.04;48.62
39435;BME280;66825;51.880;-0.518;2024-02-16T12:20:57;100625.22;;;19.04;48.49
39435;BME280;66825;51.880;-0.518;2024-02-16T12:23:22;100638.47;;;19.11;48.31
39435;BME280;66825;51.880;-0.518;2024-02-16T12:25:48;100628.34;;;19.11;48.18
39435;BME280;66825;51.880;-0.518;2024-02-16T12:28:13;100631.91;;;19.12;48.18
39435;BME280;66825;51.880;-0.518;2024-02-16T12:30:39;100628.03;;;19.13;48.25
39435;BME280;66825;51.880;-0.518;2024-02-16T12:33:05;100629.66;;;19.14;48.11
39435;BME280;66825;51.880;-0.518;2024-02-16T12:35:30;100597.66;;;18.92;48.31
39435;BME280;66825;51.880;-0.518;2024-02-16T12:37:56;100636.75;;;19.15;48.30
39435;BME280;66825;51.880;-0.518;2024-02-16T12:40:21;100640.28;;;19.15;47.96
39435;BME280;66825;51.880;-0.518;2024-02-16T12:42:47;100635.63;;;19.16;48.12
39435;BME280;66825;51.880;-0.518;2024-02-16T12:45:13;100584.09;;;18.86;48.04